createdAt,value
2019-01-09T00:00:33.977Z,98658.01
2019-01-09T00:03:05.256Z,98662.64
2019-01-09T00:05:36.223Z,98665.33
2019-01-09T00:08:07.599Z,98663.48
2019-01-09T00:10:39.743Z,98663.09
2019-01-09T00:13:15.176Z,98661.94
2019-01-09T00:15:46.632Z,98668.47
2019-01-09T00:18:17.306Z,98676.01
2019-01-09T00:20:50.381Z,98674.37
2019-01-09T00:23:22.741Z,98674.31
2019-01-09T00:25:54.585Z,98670.95
2019-01-09T00:28:26.562Z,98664.87
2019-01-09T00:31:01.957Z,98664.09
2019-01-09T00:33:34.843Z,98667.03
2019-01-09T00:36:07.755Z,98672.47
2019-01-09T00:38:40.552Z,98658.92
2019-01-09T00:41:11.985Z,98660.94
2019-01-09T00:43:42.824Z,98654.54
2019-01-09T00:46:13.687Z,98653.09
2019-01-09T00:48:42.982Z,98652.91
2019-01-09T00:51:14.758Z,98667.33
2019-01-09T00:53:45.733Z,98664.06
2019-01-09T00:56:17.562Z,98671.22
2019-01-09T00:58:48.809Z,98677.08
2019-01-09T01:01:19.939Z,98682.77
2019-01-09T01:04:34.286Z,98685.86
2019-01-09T01:07:40.852Z,98699.39
2019-01-09T01:10:35.976Z,98698.05
2019-01-09T01:13:49.249Z,98692.14
2019-01-09T01:17:12.509Z,98689.28
2019-01-09T01:20:16.500Z,98691.38
2019-01-09T01:23:31.507Z,98686.45
2019-01-09T01:26:55.716Z,98701.92
2019-01-09T01:30:00.471Z,98703.55
2019-01-09T01:32:47.572Z,98685.34
2019-01-09T01:35:59.669Z,98684.80
2019-01-09T01:38:59.205Z,98701.23
2019-01-09T01:42:20.126Z,98694.31
2019-01-09T01:45:03.388Z,98659.75
2019-01-09T01:47:54.014Z,98631.91
2019-01-09T01:50:56.398Z,98623.17
2019-01-09T01:53:57.103Z,98648.94
2019-01-09T01:57:01.683Z,98671.62
2019-01-09T02:00:12.949Z,98683.13
2019-01-09T02:03:09.545Z,98690.48
2019-01-09T02:05:52.148Z,98693.09
2019-01-09T02:08:37.562Z,98684.41
2019-01-09T02:12:02.470Z,98682.73
2019-01-09T02:15:07.202Z,98688.66
2019-01-09T02:17:52.971Z,98699.44
2019-01-09T02:20:51.850Z,98696.38
2019-01-09T02:23:49.321Z,98697.93
2019-01-09T02:27:14.492Z,98708.31
2019-01-09T02:30:06.638Z,98707.06
2019-01-09T02:32:38.023Z,98703.15
2019-01-09T02:35:09.755Z,98702.44
2019-01-09T02:37:39.228Z,98696.55
2019-01-09T02:40:08.467Z,98691.41
2019-01-09T02:42:37.703Z,98694.98
2019-01-09T02:45:07.394Z,98697.53
2019-01-09T02:47:36.641Z,98697.67
2019-01-09T02:50:06.335Z,98696.29
2019-01-09T02:52:36.867Z,98692.06
2019-01-09T02:55:07.455Z,98694.10
2019-01-09T02:57:37.092Z,98689.25
2019-01-09T03:00:10.665Z,98682.14
2019-01-09T03:02:41.788Z,98684.58
2019-01-09T03:05:11.879Z,98688.03
2019-01-09T03:07:43.731Z,98690.02
2019-01-09T03:10:13.337Z,98690.08
2019-01-09T03:12:42.907Z,98677.44
2019-01-09T03:15:12.167Z,98671.37
2019-01-09T03:17:42.652Z,98680.95
2019-01-09T03:20:15.287Z,98671.45
2019-01-09T03:22:54.885Z,98670.88
2019-01-09T03:25:24.113Z,98670.52
2019-01-09T03:27:56.457Z,98669.61
2019-01-09T03:30:26.039Z,98674.95
2019-01-09T03:32:55.641Z,98668.88
2019-01-09T03:35:24.855Z,98669.39
2019-01-09T03:37:54.411Z,98663.98
2019-01-09T03:40:25.461Z,98652.53
2019-01-09T03:42:56.533Z,98657.34
2019-01-09T03:45:28.784Z,98644.08
2019-01-09T03:47:58.710Z,98650.22
2019-01-09T03:50:32.474Z,98642.31
2019-01-09T03:53:02.393Z,98649.31
2019-01-09T03:55:42.168Z,98644.77
2019-01-09T03:58:13.660Z,98639.90
2019-01-09T04:00:43.989Z,98639.38
2019-01-09T04:03:13.498Z,98640.55
2019-01-09T04:05:44.706Z,98645.45
2019-01-09T04:08:18.155Z,98649.08
2019-01-09T04:10:48.924Z,98646.23
2019-01-09T04:13:19.806Z,98650.00
2019-01-09T04:16:09.193Z,98651.53
2019-01-09T04:18:40.939Z,98646.39
2019-01-09T04:21:11.072Z,98645.08
2019-01-09T04:23:40.924Z,98651.03
2019-01-09T04:26:10.826Z,98650.31
2019-01-09T04:28:40.691Z,98657.78
2019-01-09T04:31:10.464Z,98659.39
2019-01-09T04:33:40.091Z,98657.77
2019-01-09T04:36:11.451Z,98656.23
2019-01-09T04:38:44.394Z,98650.33
2019-01-09T04:41:15.472Z,98653.27
2019-01-09T04:43:45.557Z,98656.40
2019-01-09T04:46:15.890Z,98650.72
2019-01-09T04:48:49.772Z,98655.94
2019-01-09T04:51:21.984Z,98638.98
2019-01-09T04:53:54.687Z,98639.73
2019-01-09T04:56:26.360Z,98652.27
2019-01-09T04:58:58.931Z,98645.67
2019-01-09T05:01:29.955Z,98645.87
2019-01-09T05:04:00.909Z,98644.78
2019-01-09T05:06:35.278Z,98642.56
2019-01-09T05:09:08.506Z,98640.25
2019-01-09T05:11:38.440Z,98653.84
2019-01-09T05:14:08.306Z,98657.83
2019-01-09T05:16:38.140Z,98651.96
2019-01-09T05:19:07.790Z,98661.53
2019-01-09T05:21:38.661Z,98674.89
2019-01-09T05:24:08.385Z,98659.90
2019-01-09T05:26:37.631Z,98667.67
2019-01-09T05:29:09.753Z,98670.15
2019-01-09T05:31:39.806Z,98671.58
2019-01-09T05:34:09.702Z,98675.75
2019-01-09T05:36:41.724Z,98679.66
2019-01-09T05:39:11.347Z,98676.29
2019-01-09T05:41:41.038Z,98682.66
2019-01-09T05:44:10.542Z,98693.62
2019-01-09T05:46:42.139Z,98704.29
2019-01-09T05:49:11.715Z,98716.42
2019-01-09T05:51:41.262Z,98732.38
2019-01-09T05:54:12.704Z,98717.31
2019-01-09T05:56:42.330Z,98713.33
2019-01-09T05:59:15.970Z,98722.17
2019-01-09T06:01:46.411Z,98715.17
2019-01-09T06:04:15.719Z,98715.06
2019-01-09T06:06:45.559Z,98713.45
2019-01-09T06:09:15.075Z,98712.94
2019-01-09T06:11:44.743Z,98712.87
2019-01-09T06:14:15.198Z,98707.34
2019-01-09T06:16:44.460Z,98711.88
2019-01-09T06:19:15.073Z,98711.45
2019-01-09T06:21:44.930Z,98709.48
2019-01-09T06:24:16.633Z,98709.23
2019-01-09T06:26:46.716Z,98706.88
2019-01-09T06:29:16.647Z,98701.75
2019-01-09T06:31:46.064Z,98702.05
2019-01-09T06:34:18.255Z,98710.22
2019-01-09T06:36:49.031Z,98707.48
2019-01-09T06:39:19.012Z,98711.98
2019-01-09T06:41:55.528Z,98706.58
2019-01-09T06:44:28.011Z,98704.62
2019-01-09T06:46:58.519Z,98700.76
2019-01-09T06:49:31.576Z,98700.36
2019-01-09T06:52:03.242Z,98698.09
2019-01-09T06:54:36.604Z,98697.63
2019-01-09T06:57:06.930Z,98698.03
2019-01-09T06:59:37.720Z,98700.77
2019-01-09T07:02:08.853Z,98695.41
2019-01-09T07:04:40.936Z,98691.75
2019-01-09T07:07:10.864Z,98683.73
2019-01-09T07:09:40.455Z,98683.58
2019-01-09T07:12:09.826Z,98688.34
2019-01-09T07:14:40.348Z,98683.52
2019-01-09T07:17:10.518Z,98680.39
2019-01-09T07:19:40.079Z,98694.57
2019-01-09T07:22:10.836Z,98691.87
2019-01-09T07:24:41.654Z,98697.76
2019-01-09T07:27:12.439Z,98705.31
2019-01-09T07:29:41.780Z,98703.38
2019-01-09T07:32:11.644Z,98690.70
2019-01-09T07:34:42.206Z,98694.69
2019-01-09T07:37:12.189Z,98692.93
2019-01-09T07:39:41.523Z,98689.80
2019-01-09T07:42:10.773Z,98688.28
2019-01-09T07:44:41.534Z,98696.72
2019-01-09T07:47:11.673Z,98698.85
2019-01-09T07:49:41.644Z,98694.11
2019-01-09T07:52:11.563Z,98698.73
2019-01-09T07:54:42.604Z,98696.39
2019-01-09T07:57:14.362Z,98696.81
2019-01-09T07:59:43.909Z,98704.34
2019-01-09T08:02:16.715Z,98705.02
2019-01-09T08:04:48.076Z,98699.19
2019-01-09T08:07:18.277Z,98709.62
2019-01-09T08:09:48.595Z,98710.54
2019-01-09T08:12:25.971Z,98714.21
2019-01-09T08:14:56.098Z,98713.55
2019-01-09T08:17:26.001Z,98720.68
2019-01-09T08:19:59.201Z,98728.58
2019-01-09T08:22:29.148Z,98731.03
2019-01-09T08:25:00.807Z,98739.64
2019-01-09T08:27:30.236Z,98745.20
2019-01-09T08:29:59.547Z,98756.69
2019-01-09T08:32:28.995Z,98753.63
2019-01-09T08:35:00.040Z,98750.64
2019-01-09T08:37:31.389Z,98750.95
2019-01-09T08:40:02.241Z,98756.03
2019-01-09T08:42:36.441Z,98753.31
2019-01-09T08:45:14.760Z,98766.28
2019-01-09T08:47:45.506Z,98778.03
2019-01-09T08:50:15.576Z,98769.66
2019-01-09T08:52:45.730Z,98775.88
2019-01-09T08:55:16.569Z,98780.30
2019-01-09T08:57:46.876Z,98789.72
2019-01-09T09:00:20.767Z,98783.27
2019-01-09T09:02:49.997Z,98761.98
2019-01-09T09:05:19.765Z,98767.88
2019-01-09T09:07:58.176Z,98768.13
2019-01-09T09:10:29.532Z,98767.67
2019-01-09T09:12:59.325Z,98761.14
2019-01-09T09:15:28.840Z,98763.02
2019-01-09T09:17:59.520Z,98754.03
2019-01-09T09:20:29.020Z,98758.46
2019-01-09T09:22:58.338Z,98764.44
2019-01-09T09:25:39.619Z,98770.73
2019-01-09T09:28:11.361Z,98766.59
2019-01-09T09:30:40.718Z,98778.34
2019-01-09T09:33:11.422Z,98776.97
2019-01-09T09:35:41.269Z,98780.86
2019-01-09T09:38:23.650Z,98780.84
2019-01-09T09:41:20.310Z,98784.78
2019-01-09T09:43:57.884Z,98786.63
2019-01-09T09:46:31.285Z,98786.63
2019-01-09T09:49:11.903Z,98783.30
2019-01-09T09:52:08.248Z,98783.63
2019-01-09T09:55:00.976Z,98785.42
2019-01-09T09:57:33.732Z,98789.25
2019-01-09T10:00:13.304Z,98787.95
2019-01-09T10:02:50.721Z,98794.61
2019-01-09T10:05:24.971Z,98795.48
2019-01-09T10:08:09.772Z,98795.33
2019-01-09T10:10:45.519Z,98798.54
2019-01-09T10:13:14.842Z,98803.23
2019-01-09T10:15:54.319Z,98799.70
2019-01-09T10:21:51.796Z,98795.61
2019-01-09T10:24:50.495Z,98799.66
2019-01-09T10:27:30.084Z,98810.50
2019-01-09T10:30:03.056Z,98787.95
2019-01-09T10:32:53.615Z,98813.75
2019-01-09T10:35:42.379Z,98816.37
2019-01-09T10:38:14.198Z,98815.30
2019-01-09T10:40:44.878Z,98820.29
2019-01-09T10:43:14.142Z,98813.08
2019-01-09T10:45:46.732Z,98806.75
2019-01-09T10:48:17.735Z,98813.68
2019-01-09T10:50:50.129Z,98809.93
2019-01-09T10:53:25.526Z,98810.97
2019-01-09T10:56:01.215Z,98818.45
2019-01-09T11:01:30.745Z,98826.99
2019-01-09T11:04:02.650Z,98823.45
2019-01-09T11:06:33.115Z,98826.75
2019-01-09T11:09:02.382Z,98826.81
2019-01-09T11:11:31.624Z,98825.69
2019-01-09T11:14:01.248Z,98826.99
2019-01-09T11:16:30.467Z,98821.52
2019-01-09T11:18:59.716Z,98819.25
2019-01-09T11:21:31.703Z,98815.59
2019-01-09T11:24:01.273Z,98812.16
2019-01-09T11:26:36.315Z,98822.38
2019-01-09T11:29:13.781Z,98829.55
2019-01-09T11:31:52.406Z,98830.73
2019-01-09T11:34:43.359Z,98829.27
2019-01-09T11:37:16.288Z,98835.23
2019-01-09T11:39:52.775Z,98836.22
2019-01-09T11:42:26.495Z,98835.06
2019-01-09T11:45:00.482Z,98833.81
2019-01-09T11:47:37.278Z,98831.53
2019-01-09T11:50:16.011Z,98838.86
2019-01-09T11:52:52.805Z,98841.20
2019-01-09T11:55:28.788Z,98838.47
2019-01-09T11:58:09.165Z,98849.31
2019-01-09T12:01:32.933Z,98850.63
2019-01-09T12:04:04.800Z,98855.27
2019-01-09T12:06:36.229Z,98850.95
2019-01-09T12:09:11.931Z,98851.92
2019-01-09T12:11:50.230Z,98843.63
2019-01-09T12:14:22.251Z,98842.33
2019-01-09T12:16:53.814Z,98844.14
2019-01-09T12:19:30.590Z,98841.33
2019-01-09T12:22:02.827Z,98847.40
2019-01-09T12:24:34.106Z,98842.78
2019-01-09T12:27:05.433Z,98831.20
2019-01-09T12:29:37.566Z,98830.11
2019-01-09T12:32:08.680Z,98832.78
2019-01-09T12:34:43.275Z,98832.39
2019-01-09T12:37:15.330Z,98835.06
2019-01-09T12:39:44.625Z,98830.35
2019-01-09T12:42:16.048Z,98842.20
2019-01-09T12:44:47.561Z,98843.69
2019-01-09T12:47:18.947Z,98848.52
2019-01-09T12:49:49.529Z,98848.98
2019-01-09T12:52:21.289Z,98842.96
2019-01-09T12:54:50.611Z,98852.44
2019-01-09T12:57:21.837Z,98845.27
2019-01-09T12:59:57.076Z,98847.67
2019-01-09T13:02:28.375Z,98847.73
2019-01-09T13:04:57.736Z,98839.71
2019-01-09T13:10:38.872Z,98846.55
2019-01-09T13:13:13.878Z,98844.27
2019-01-09T13:15:43.951Z,98831.02
2019-01-09T13:18:28.408Z,98855.18
2019-01-09T13:20:58.782Z,98849.95
2019-01-09T13:23:28.039Z,98845.58
2019-01-09T13:25:58.546Z,98852.90
2019-01-09T13:28:32.182Z,98852.11
2019-01-09T13:31:10.436Z,98861.77
2019-01-09T13:33:41.891Z,98870.41
2019-01-09T13:36:11.758Z,98876.42
2019-01-09T13:38:50.997Z,98875.82
2019-01-09T13:41:22.744Z,98880.29
2019-01-09T13:43:53.831Z,98871.05
2019-01-09T13:46:24.425Z,98871.93
2019-01-09T13:48:57.018Z,98869.56
2019-01-09T13:54:44.982Z,98865.64
2019-01-09T13:57:24.113Z,98864.54
2019-01-09T13:59:54.757Z,98870.02
2019-01-09T14:02:29.521Z,98878.38
2019-01-09T14:04:58.785Z,98885.76
2019-01-09T14:07:32.076Z,98895.36
2019-01-09T14:10:05.936Z,98893.69
2019-01-09T14:12:36.038Z,98899.77
2019-01-09T14:15:08.215Z,98901.31
2019-01-09T14:17:37.845Z,98908.12
2019-01-09T14:20:12.789Z,98901.31
2019-01-09T14:22:46.659Z,98906.02
2019-01-09T14:25:19.834Z,98909.95
2019-01-09T14:27:51.539Z,98911.52
2019-01-09T14:30:28.068Z,98903.16
2019-01-09T14:33:03.942Z,98913.98
2019-01-09T14:35:40.037Z,98917.39
2019-01-09T14:38:10.416Z,98920.45
2019-01-09T14:40:42.120Z,98921.28
2019-01-09T14:43:16.512Z,98923.12
2019-01-09T14:45:46.212Z,98927.17
2019-01-09T14:48:17.596Z,98930.17
2019-01-09T14:50:50.139Z,98926.11
2019-01-09T14:53:21.376Z,98932.45
2019-01-09T14:55:52.243Z,98938.61
2019-01-09T14:58:22.805Z,98934.01
2019-01-09T15:00:54.772Z,98943.80
2019-01-09T15:03:25.098Z,98945.50
2019-01-09T15:05:56.639Z,98953.56
2019-01-09T15:08:30.255Z,98954.36
2019-01-09T15:11:11.319Z,98956.78
2019-01-09T15:13:43.631Z,98956.06
2019-01-09T15:16:13.842Z,98968.67
2019-01-09T15:18:44.434Z,98976.55
2019-01-09T15:21:14.576Z,98973.70
2019-01-09T15:23:43.910Z,98977.92
2019-01-09T15:26:19.126Z,98981.44
2019-01-09T15:28:50.230Z,98984.53
2019-01-09T15:31:23.303Z,98988.09
2019-01-09T15:33:53.339Z,98980.88
2019-01-09T15:36:23.847Z,98978.75
2019-01-09T15:38:55.769Z,98987.59
2019-01-09T15:41:28.403Z,98986.39
2019-01-09T15:44:06.471Z,98995.20
2019-01-09T15:46:41.580Z,98995.48
2019-01-09T15:49:11.291Z,99007.81
2019-01-09T15:51:40.879Z,99004.80
2019-01-09T15:54:16.340Z,99009.62
2019-01-09T15:56:52.394Z,99010.58
2019-01-09T15:59:22.158Z,99018.06
2019-01-09T16:01:51.381Z,99010.35
2019-01-09T16:04:22.197Z,99021.14
2019-01-09T16:06:51.431Z,99025.16
2019-01-09T16:09:20.695Z,99019.94
2019-01-09T16:11:50.192Z,99026.02
2019-01-09T16:14:19.720Z,99034.45
2019-01-09T16:16:48.946Z,99031.34
2019-01-09T16:19:18.482Z,99040.87
2019-01-09T16:21:47.796Z,99038.14
2019-01-09T16:24:17.415Z,99044.83
2019-01-09T16:26:46.925Z,99048.75
2019-01-09T16:29:16.531Z,99051.10
2019-01-09T16:31:47.432Z,99046.23
2019-01-09T16:34:17.933Z,99052.26
2019-01-09T16:36:53.689Z,99049.70
2019-01-09T16:39:30.977Z,99051.86
2019-01-09T16:42:01.670Z,99056.33
2019-01-09T16:44:37.838Z,99058.98
2019-01-09T16:47:11.843Z,99056.39
2019-01-09T16:50:00.717Z,99053.92
2019-01-09T16:52:30.630Z,99059.28
2019-01-09T16:55:03.474Z,99060.28
2019-01-09T16:57:34.844Z,99056.52
2019-01-09T17:00:14.475Z,99068.02
2019-01-09T17:02:48.424Z,99070.27
2019-01-09T17:05:24.396Z,99080.77
2019-01-09T17:08:25.707Z,99084.03
2019-01-09T17:10:56.593Z,99085.38
2019-01-09T17:13:32.107Z,99081.02
2019-01-09T17:16:09.112Z,99088.28
2019-01-09T17:18:40.368Z,99091.74
2019-01-09T17:21:12.461Z,99094.80
2019-01-09T17:23:55.029Z,99098.33
2019-01-09T17:26:30.055Z,99102.89
2019-01-09T17:28:59.300Z,99100.73
2019-01-09T17:31:28.565Z,99103.34
2019-01-09T17:33:59.681Z,99103.81
2019-01-09T17:36:29.150Z,99102.74
2019-01-09T17:39:01.887Z,99105.36
2019-01-09T17:41:32.123Z,99116.44
2019-01-09T17:44:03.116Z,99117.34
2019-01-09T17:46:35.504Z,99122.52
2019-01-09T17:49:06.888Z,99121.77
2019-01-09T17:51:36.524Z,99121.27
2019-01-09T17:54:06.239Z,99111.53
2019-01-09T17:56:36.064Z,99124.17
2019-01-09T17:59:07.083Z,99129.28
2019-01-09T18:01:36.413Z,99140.40
2019-01-09T18:04:06.504Z,99147.98
2019-01-09T18:06:35.910Z,99151.95
2019-01-09T18:09:11.183Z,99152.45
2019-01-09T18:11:42.415Z,99146.13
2019-01-09T18:14:35.095Z,99145.77
2019-01-09T18:17:04.700Z,99154.03
2019-01-09T18:19:39.202Z,99166.13
2019-01-09T18:22:09.733Z,99166.12
2019-01-09T18:24:38.995Z,99163.47
2019-01-09T18:27:11.690Z,99168.55
2019-01-09T18:29:41.748Z,99170.80
2019-01-09T18:32:41.376Z,99173.77
2019-01-09T18:35:19.366Z,99175.78
2019-01-09T18:38:37.531Z,99178.44
2019-01-09T18:41:42.855Z,99175.52
2019-01-09T18:44:37.111Z,99179.52
2019-01-09T18:47:18.557Z,99179.56
2019-01-09T18:50:38.863Z,99178.13
2019-01-09T18:53:35.526Z,99186.98
2019-01-09T18:56:11.921Z,99197.78
2019-01-09T18:58:43.022Z,99203.09
2019-01-09T19:01:14.177Z,99217.52
2019-01-09T19:03:46.024Z,99222.77
2019-01-09T19:06:16.237Z,99226.05
2019-01-09T19:08:46.016Z,99230.73
2019-01-09T19:11:15.793Z,99230.41
2019-01-09T19:13:45.712Z,99233.20
2019-01-09T19:16:16.398Z,99233.20
2019-01-09T19:18:45.940Z,99237.08
2019-01-09T19:21:15.956Z,99245.87
2019-01-09T19:23:45.864Z,99241.83
2019-01-09T19:26:22.573Z,99245.65
2019-01-09T19:28:54.226Z,99255.80
2019-01-09T19:31:31.388Z,99256.81
2019-01-09T19:34:04.388Z,99253.80
2019-01-09T19:36:36.897Z,99254.56
2019-01-09T19:39:18.117Z,99262.75
2019-01-09T19:41:49.889Z,99266.03
2019-01-09T19:44:20.027Z,99262.25
2019-01-09T19:46:55.263Z,99261.05
2019-01-09T19:49:29.178Z,99261.19
2019-01-09T19:52:01.747Z,99260.66
2019-01-09T19:54:34.676Z,99255.16
2019-01-09T19:57:05.386Z,99257.37
2019-01-09T19:59:41.067Z,99262.72
2019-01-09T20:02:12.928Z,99266.50
2019-01-09T20:04:47.898Z,99269.02
2019-01-09T20:07:23.861Z,99273.11
2019-01-09T20:09:55.708Z,99274.37
2019-01-09T20:12:31.818Z,99270.41
2019-01-09T20:15:01.150Z,99271.80
2019-01-09T20:17:32.443Z,99282.16
2019-01-09T20:20:02.357Z,99281.25
2019-01-09T20:22:31.641Z,99289.34
2019-01-09T20:25:02.168Z,99289.30
2019-01-09T20:27:31.365Z,99290.70
2019-01-09T20:30:00.667Z,99292.27
2019-01-09T20:32:29.862Z,99293.85
2019-01-09T20:35:01.927Z,99285.07
2019-01-09T20:37:34.760Z,99300.14
2019-01-09T20:40:08.100Z,99296.32
2019-01-09T20:42:39.507Z,99298.80
2019-01-09T20:45:12.038Z,99301.89
2019-01-09T20:47:44.521Z,99309.45
2019-01-09T20:50:17.163Z,99313.69
2019-01-09T20:52:47.942Z,99317.59
2019-01-09T20:55:17.264Z,99319.31
2019-01-09T20:57:46.541Z,99314.31
2019-01-09T21:00:25.504Z,99314.22
2019-01-09T21:02:59.421Z,99312.47
2019-01-09T21:05:44.426Z,99318.13
2019-01-09T21:08:15.521Z,99320.83
2019-01-09T21:10:44.920Z,99324.30
2019-01-09T21:13:18.467Z,99324.70
2019-01-09T21:15:49.302Z,99318.34
2019-01-09T21:18:20.684Z,99316.88
2019-01-09T21:20:50.268Z,99318.22
2019-01-09T21:23:26.626Z,99317.72
2019-01-09T21:25:56.731Z,99317.45
2019-01-09T21:28:38.604Z,99320.83
2019-01-09T21:31:12.351Z,99317.77
2019-01-09T21:33:49.888Z,99316.96
2019-01-09T21:36:20.818Z,99327.84
2019-01-09T21:38:52.534Z,99329.56
2019-01-09T21:41:23.341Z,99327.84
2019-01-09T21:43:57.463Z,99332.84
2019-01-09T21:46:33.454Z,99336.77
2019-01-09T21:49:04.524Z,99336.22
2019-01-09T21:51:36.283Z,99337.84
2019-01-09T21:54:05.642Z,99330.06
2019-01-09T21:56:41.525Z,99344.73
2019-01-09T21:59:11.886Z,99345.67
2019-01-09T22:01:43.626Z,99351.88
2019-01-09T22:04:15.146Z,99353.41
2019-01-09T22:06:46.678Z,99347.92
2019-01-09T22:09:19.424Z,99350.35
2019-01-09T22:11:50.851Z,99350.35
2019-01-09T22:14:22.102Z,99355.94
2019-01-09T22:16:53.399Z,99359.89
2019-01-09T22:19:25.193Z,99359.36
2019-01-09T22:22:00.161Z,99359.72
2019-01-09T22:24:31.757Z,99359.94
2019-01-09T22:27:00.995Z,99362.95
2019-01-09T22:29:32.829Z,99375.39
2019-01-09T22:32:05.170Z,99373.72
2019-01-09T22:34:36.254Z,99378.48
2019-01-09T22:37:05.846Z,99378.45
2019-01-09T22:39:37.811Z,99377.14
2019-01-09T22:42:11.999Z,99375.80
2019-01-09T22:44:41.140Z,99388.92
2019-01-09T22:47:12.349Z,99382.76
2019-01-09T22:49:44.027Z,99387.00
2019-01-09T22:52:15.166Z,99386.63
2019-01-09T22:54:46.535Z,99394.42
2019-01-09T22:57:16.769Z,99387.76
2019-01-09T22:59:48.618Z,99380.20
2019-01-09T23:02:19.547Z,99375.70
2019-01-09T23:04:50.205Z,99383.61
2019-01-09T23:07:19.863Z,99388.88
2019-01-09T23:09:49.436Z,99388.48
2019-01-09T23:12:21.427Z,99390.14
2019-01-09T23:14:51.117Z,99395.00
2019-01-09T23:17:22.397Z,99397.66
2019-01-09T23:19:53.726Z,99394.05
2019-01-09T23:22:30.407Z,99398.78
2019-01-09T23:25:04.654Z,99398.83
2019-01-09T23:27:36.114Z,99400.63
2019-01-09T23:30:09.496Z,99399.45
2019-01-09T23:32:41.186Z,99404.05
2019-01-09T23:35:15.097Z,99407.32
2019-01-09T23:37:47.103Z,99406.91
2019-01-09T23:40:20.763Z,99409.44
2019-01-09T23:42:52.105Z,99410.38
2019-01-09T23:45:23.985Z,99415.92
2019-01-09T23:47:55.536Z,99418.16
2019-01-09T23:50:27.308Z,99420.73
2019-01-09T23:52:56.869Z,99420.28
2019-01-09T23:55:26.417Z,99416.73
2019-01-09T23:57:56.870Z,99428.94
